sensor_id;sensor_type;location;lat;lon;timestamp;pressure;altitude;pressure_sealevel;temperature;humidity
35676;BME280;21790;42.668;23.298;2023-01-25T00:12:34;95784.53;;;9.52;47.24
35676;BME280;21790;42.668;23.298;2023-01-25T00:15:00;95789.72;;;9.66;46.82
35676;BME280;21790;42.668;23.298;2023-01-25T00:17:25;95779.31;;;9.74;46.83
35676;BME280;21790;42.668;23.298;2023-01-25T00:19:51;95780.59;;;9.70;46.59
35676;BME280;21790;42.668;23.298;2023-01-25T00:22:18;95789.56;;;9.74;46.88
35676;BME280;21790;42.668;23.298;2023-01-25T00:24:45;95788.34;;;9.58;47.25
35676;BME280;21790;42.668;23.298;2023-01-25T00:27:20;95788.00;;;9.73;47.29
35676;BME280;21790;42.668;23.298;2023-01-25T00:29:46;95781.59;;;9.43;47.22
35676;BME280;21790;42.668;23.298;2023-01-25T00:34:47;95780.16;;;9.71;46.99
35676;BME280;21790;42.668;23.298;2023-01-25T00:37:24;95785.41;;;9.65;47.29
35676;BME280;21790;42.668;23.298;2023-01-25T00:39:55;95790.16;;;9.65;47.24
35676;BME280;21790;42.668;23.298;2023-01-25T00:42:21;95785.78;;;9.32;47.80
35676;BME280;21790;42.668;23.298;2023-01-25T00:44:47;95788.75;;;9.21;48.27
35676;BME280;21790;42.668;23.298;2023-01-25T00:47:13;95787.53;;;9.22;48.06
35676;BME280;21790;42.668;23.298;2023-01-25T00:49:41;95786.34;;;9.23;48.00
35676;BME280;21790;42.668;23.298;2023-01-25T00:52:07;95789.69;;;8.95;48.45
35676;BME280;21790;42.668;23.298;2023-01-25T00:54:32;95788.63;;;8.89;49.09
35676;BME280;21790;42.668;23.298;2023-01-25T00:56:58;95797.88;;;9.18;48.28
35676;BME280;21790;42.668;23.298;2023-01-25T00:59:24;95798.75;;;9.15;48.13
35676;BME280;21790;42.668;23.298;2023-01-25T01:01:51;95798.50;;;9.06;48.37
35676;BME280;21790;42.668;23.298;2023-01-25T01:04:17;95789.97;;;9.20;48.36
35676;BME280;21790;42.668;23.298;2023-01-25T01:06:43;95788.50;;;9.15;47.73
35676;BME280;21790;42.668;23.298;2023-01-25T01:09:14;95785.53;;;9.42;47.03
35676;BME280;21790;42.668;23.298;2023-01-25T01:11:40;95797.81;;;8.82;47.99
35676;BME280;21790;42.668;23.298;2023-01-25T01:14:05;95798.41;;;8.50;48.66
35676;BME280;21790;42.668;23.298;2023-01-25T01:16:31;95790.88;;;8.54;48.30
35676;BME280;21790;42.668;23.298;2023-01-25T01:18:57;95788.63;;;8.46;49.02
35676;BME280;21790;42.668;23.298;2023-01-25T01:21:22;95786.41;;;8.60;48.46
35676;BME280;21790;42.668;23.298;2023-01-25T01:23:48;95782.50;;;8.38;48.69
35676;BME280;21790;42.668;23.298;2023-01-25T01:26:15;95785.81;;;8.26;48.88
35676;BME280;21790;42.668;23.298;2023-01-25T01:28:41;95777.91;;;8.51;48.47
35676;BME280;21790;42.668;23.298;2023-01-25T01:31:10;95774.53;;;8.63;48.53
35676;BME280;21790;42.668;23.298;2023-01-25T01:33:36;95771.66;;;8.51;48.57
35676;BME280;21790;42.668;23.298;2023-01-25T01:36:14;95766.78;;;8.58;48.60
35676;BME280;21790;42.668;23.298;2023-01-25T01:38:40;95775.22;;;8.24;49.11
35676;BME280;21790;42.668;23.298;2023-01-25T01:41:06;95774.09;;;8.22;49.29
35676;BME280;21790;42.668;23.298;2023-01-25T01:43:32;95780.16;;;7.90;50.04
35676;BME280;21790;42.668;23.298;2023-01-25T01:46:00;95773.03;;;8.16;49.42
35676;BME280;21790;42.668;23.298;2023-01-25T01:54:23;95758.59;;;8.74;48.32
35676;BME280;21790;42.668;23.298;2023-01-25T01:59:38;95760.84;;;8.79;48.43
35676;BME280;21790;42.668;23.298;2023-01-25T02:02:05;95764.63;;;9.25;47.59
35676;BME280;21790;42.668;23.298;2023-01-25T02:04:31;95763.81;;;9.08;47.52
35676;BME280;21790;42.668;23.298;2023-01-25T02:09:28;95763.22;;;9.17;47.77
35676;BME280;21790;42.668;23.298;2023-01-25T02:11:55;95766.34;;;9.19;47.18
35676;BME280;21790;42.668;23.298;2023-01-25T02:14:21;95769.09;;;9.19;47.26
35676;BME280;21790;42.668;23.298;2023-01-25T02:16:47;95763.63;;;9.35;46.88
35676;BME280;21790;42.668;23.298;2023-01-25T02:19:24;95756.00;;;9.59;46.51
35676;BME280;21790;42.668;23.298;2023-01-25T02:21:56;95764.69;;;9.41;47.17
35676;BME280;21790;42.668;23.298;2023-01-25T02:24:27;95766.28;;;9.39;47.03
35676;BME280;21790;42.668;23.298;2023-01-25T02:26:55;95758.19;;;9.32;46.96
35676;BME280;21790;42.668;23.298;2023-01-25T02:29:22;95767.91;;;9.00;47.77
35676;BME280;21790;42.668;23.298;2023-01-25T02:31:48;95761.84;;;8.69;48.86
35676;BME280;21790;42.668;23.298;2023-01-25T02:34:17;95764.50;;;8.73;48.53
35676;BME280;21790;42.668;23.298;2023-01-25T02:36:43;95759.44;;;8.91;48.12
35676;BME280;21790;42.668;23.298;2023-01-25T02:39:14;95760.72;;;8.87;48.21
35676;BME280;21790;42.668;23.298;2023-01-25T02:41:44;95762.50;;;8.77;48.79
35676;BME280;21790;42.668;23.298;2023-01-25T02:44:14;95748.13;;;8.86;48.33
35676;BME280;21790;42.668;23.298;2023-01-25T02:46:41;95751.00;;;8.16;50.00
35676;BME280;21790;42.668;23.298;2023-01-25T02:49:08;95752.38;;;8.51;49.34
35676;BME280;21790;42.668;23.298;2023-01-25T02:51:36;95750.81;;;8.50;48.99
35676;BME280;21790;42.668;23.298;2023-01-25T02:54:04;95751.38;;;8.61;49.05
35676;BME280;21790;42.668;23.298;2023-01-25T02:56:30;95762.41;;;8.61;48.93
35676;BME280;21790;42.668;23.298;2023-01-25T02:58:55;95757.16;;;8.23;50.05
35676;BME280;21790;42.668;23.298;2023-01-25T03:01:21;95759.56;;;8.64;48.84
35676;BME280;21790;42.668;23.298;2023-01-25T03:03:47;95755.41;;;8.76;48.94
35676;BME280;21790;42.668;23.298;2023-01-25T03:06:13;95748.41;;;8.71;48.16
35676;BME280;21790;42.668;23.298;2023-01-25T03:08:40;95752.88;;;9.05;48.21
35676;BME280;21790;42.668;23.298;2023-01-25T03:11:07;95756.25;;;8.93;48.03
35676;BME280;21790;42.668;23.298;2023-01-25T03:13:34;95758.31;;;8.89;47.75
35676;BME280;21790;42.668;23.298;2023-01-25T03:16:05;95760.06;;;8.99;47.56
35676;BME280;21790;42.668;23.298;2023-01-25T03:18:31;95757.59;;;8.45;48.67
35676;BME280;21790;42.668;23.298;2023-01-25T03:21:06;95740.22;;;8.88;47.89
35676;BME280;21790;42.668;23.298;2023-01-25T03:23:32;95757.38;;;8.75;47.98
35676;BME280;21790;42.668;23.298;2023-01-25T03:26:14;95746.34;;;8.95;47.52
35676;BME280;21790;42.668;23.298;2023-01-25T03:28:41;95747.19;;;8.53;48.48
35676;BME280;21790;42.668;23.298;2023-01-25T03:31:09;95757.03;;;8.73;47.90
35676;BME280;21790;42.668;23.298;2023-01-25T03:33:35;95755.13;;;8.70;47.79
35676;BME280;21790;42.668;23.298;2023-01-25T03:36:02;95748.81;;;8.90;47.33
35676;BME280;21790;42.668;23.298;2023-01-25T03:38:28;95757.59;;;8.85;47.70
35676;BME280;21790;42.668;23.298;2023-01-25T03:40:53;95759.28;;;8.78;48.00
35676;BME280;21790;42.668;23.298;2023-01-25T03:43:19;95755.50;;;8.72;48.06
35676;BME280;21790;42.668;23.298;2023-01-25T03:45:45;95758.44;;;8.81;47.69
35676;BME280;21790;42.668;23.298;2023-01-25T03:48:15;95750.44;;;9.07;47.21
35676;BME280;21790;42.668;23.298;2023-01-25T03:50:40;95752.09;;;9.04;47.67
35676;BME280;21790;42.668;23.298;2023-01-25T03:53:18;95747.25;;;9.08;47.39
35676;BME280;21790;42.668;23.298;2023-01-25T03:56:03;95739.94;;;8.82;48.02
35676;BME280;21790;42.668;23.298;2023-01-25T03:58:29;95740.66;;;8.66;48.06
35676;BME280;21790;42.668;23.298;2023-01-25T04:00:56;95746.72;;;8.77;48.17
35676;BME280;21790;42.668;23.298;2023-01-25T04:03:23;95740.28;;;8.64;48.19
35676;BME280;21790;42.668;23.298;2023-01-25T04:05:50;95732.28;;;8.90;47.75
35676;BME280;21790;42.668;23.298;2023-01-25T04:08:16;95733.00;;;8.74;47.68
35676;BME280;21790;42.668;23.298;2023-01-25T04:10:42;95735.84;;;8.51;48.25
35676;BME280;21790;42.668;23.298;2023-01-25T04:13:08;95726.44;;;8.48;48.28
35676;BME280;21790;42.668;23.298;2023-01-25T04:15:35;95736.97;;;8.53;48.80
35676;BME280;21790;42.668;23.298;2023-01-25T04:18:00;95736.16;;;8.33;48.89
35676;BME280;21790;42.668;23.298;2023-01-25T04:20:26;95735.06;;;8.70;48.30
35676;BME280;21790;42.668;23.298;2023-01-25T04:22:51;95733.22;;;8.63;48.04
35676;BME280;21790;42.668;23.298;2023-01-25T04:25:17;95732.72;;;8.68;48.34
35676;BME280;21790;42.668;23.298;2023-01-25T04:27:42;95726.56;;;8.80;48.25
35676;BME280;21790;42.668;23.298;2023-01-25T04:30:08;95731.88;;;8.71;48.25
35676;BME280;21790;42.668;23.298;2023-01-25T04:32:35;95743.03;;;10.82;63.94
35676;BME280;21790;42.668;23.298;2023-01-25T04:35:02;95729.31;;;10.91;53.91
35676;BME280;21790;42.668;23.298;2023-01-25T04:37:27;95746.38;;;10.89;45.98
35676;BME280;21790;42.668;23.298;2023-01-25T04:39:53;95751.34;;;10.04;45.83
35676;BME280;21790;42.668;23.298;2023-01-25T04:42:19;95754.03;;;9.92;46.25
35676;BME280;21790;42.668;23.298;2023-01-25T04:44:45;95755.94;;;9.79;46.20
35676;BME280;21790;42.668;23.298;2023-01-25T04:47:10;95750.41;;;9.62;46.29
35676;BME280;21790;42.668;23.298;2023-01-25T04:49:36;95740.38;;;9.52;46.17
35676;BME280;21790;42.668;23.298;2023-01-25T04:52:01;95749.28;;;9.24;47.05
35676;BME280;21790;42.668;23.298;2023-01-25T04:54:27;95745.03;;;8.84;47.67
35676;BME280;21790;42.668;23.298;2023-01-25T04:56:53;95747.06;;;8.79;48.21
35676;BME280;21790;42.668;23.298;2023-01-25T04:59:19;95748.81;;;8.90;47.94
35676;BME280;21790;42.668;23.298;2023-01-25T05:01:44;95757.97;;;8.67;48.11
35676;BME280;21790;42.668;23.298;2023-01-25T05:04:10;95739.84;;;8.86;47.91
35676;BME280;21790;42.668;23.298;2023-01-25T05:06:37;95744.69;;;9.17;47.35
35676;BME280;21790;42.668;23.298;2023-01-25T05:09:03;95747.72;;;8.87;47.17
35676;BME280;21790;42.668;23.298;2023-01-25T05:11:28;95741.22;;;8.77;47.08
35676;BME280;21790;42.668;23.298;2023-01-25T05:13:54;95735.50;;;8.88;46.95
35676;BME280;21790;42.668;23.298;2023-01-25T05:16:22;95746.53;;;9.24;45.95
35676;BME280;21790;42.668;23.298;2023-01-25T05:18:48;95751.16;;;9.11;45.97
35676;BME280;21790;42.668;23.298;2023-01-25T05:21:26;95732.38;;;9.22;45.95
35676;BME280;21790;42.668;23.298;2023-01-25T05:24:10;95736.03;;;8.79;46.69
35676;BME280;21790;42.668;23.298;2023-01-25T05:26:40;95734.13;;;9.16;46.21
35676;BME280;21790;42.668;23.298;2023-01-25T05:29:38;95726.50;;;8.84;46.31
35676;BME280;21790;42.668;23.298;2023-01-25T05:32:18;95740.91;;;8.92;46.70
35676;BME280;21790;42.668;23.298;2023-01-25T05:34:45;95738.88;;;8.56;47.07
35676;BME280;21790;42.668;23.298;2023-01-25T05:37:21;95743.91;;;8.81;46.57
35676;BME280;21790;42.668;23.298;2023-01-25T05:39:47;95747.84;;;8.80;46.47
35676;BME280;21790;42.668;23.298;2023-01-25T05:42:14;95744.41;;;8.56;46.67
35676;BME280;21790;42.668;23.298;2023-01-25T05:44:43;95728.16;;;8.62;46.10
35676;BME280;21790;42.668;23.298;2023-01-25T05:47:12;95749.63;;;8.70;46.28
35676;BME280;21790;42.668;23.298;2023-01-25T05:49:38;95740.69;;;8.63;46.39
35676;BME280;21790;42.668;23.298;2023-01-25T05:52:04;95742.41;;;8.76;46.28
35676;BME280;21790;42.668;23.298;2023-01-25T05:54:41;95746.34;;;8.95;46.04
35676;BME280;21790;42.668;23.298;2023-01-25T05:57:15;95752.28;;;8.74;46.39
35676;BME280;21790;42.668;23.298;2023-01-25T05:59:41;95747.97;;;8.53;46.66
35676;BME280;21790;42.668;23.298;2023-01-25T06:02:11;95753.16;;;8.71;46.40
35676;BME280;21790;42.668;23.298;2023-01-25T06:04:38;95744.31;;;8.79;46.28
35676;BME280;21790;42.668;23.298;2023-01-25T06:07:04;95747.16;;;8.76;46.35
35676;BME280;21790;42.668;23.298;2023-01-25T06:09:32;95739.34;;;9.10;45.33
35676;BME280;21790;42.668;23.298;2023-01-25T06:12:06;95747.59;;;9.30;45.34
35676;BME280;21790;42.668;23.298;2023-01-25T06:14:44;95755.50;;;9.28;45.28
35676;BME280;21790;42.668;23.298;2023-01-25T06:17:12;95757.66;;;8.81;45.60
35676;BME280;21790;42.668;23.298;2023-01-25T06:19:55;95755.69;;;8.81;46.19
35676;BME280;21790;42.668;23.298;2023-01-25T06:22:34;95768.00;;;8.77;45.73
35676;BME280;21790;42.668;23.298;2023-01-25T06:25:00;95755.25;;;8.63;46.16
35676;BME280;21790;42.668;23.298;2023-01-25T06:27:27;95765.97;;;8.38;46.87
35676;BME280;21790;42.668;23.298;2023-01-25T06:29:53;95758.38;;;8.22;46.76
35676;BME280;21790;42.668;23.298;2023-01-25T06:32:19;95760.09;;;8.36;46.62
35676;BME280;21790;42.668;23.298;2023-01-25T06:34:45;95759.97;;;8.43;46.22
35676;BME280;21790;42.668;23.298;2023-01-25T06:37:11;95753.19;;;8.48;46.46
35676;BME280;21790;42.668;23.298;2023-01-25T06:39:42;95756.97;;;8.77;46.30
35676;BME280;21790;42.668;23.298;2023-01-25T06:42:13;95760.78;;;8.83;45.81
35676;BME280;21790;42.668;23.298;2023-01-25T06:44:38;95754.56;;;8.79;45.76
35676;BME280;21790;42.668;23.298;2023-01-25T06:47:04;95756.19;;;8.76;45.83
35676;BME280;21790;42.668;23.298;2023-01-25T06:49:32;95754.91;;;9.01;45.69
35676;BME280;21790;42.668;23.298;2023-01-25T06:52:00;95747.63;;;9.10;45.51
35676;BME280;21790;42.668;23.298;2023-01-25T06:54:26;95752.31;;;8.94;45.35
35676;BME280;21790;42.668;23.298;2023-01-25T06:56:56;95754.63;;;9.15;45.75
35676;BME280;21790;42.668;23.298;2023-01-25T06:59:21;95754.94;;;9.17;45.10
35676;BME280;21790;42.668;23.298;2023-01-25T07:01:46;95754.66;;;9.11;45.07
35676;BME280;21790;42.668;23.298;2023-01-25T07:04:22;95742.72;;;9.18;45.13
35676;BME280;21790;42.668;23.298;2023-01-25T07:06:50;95749.06;;;8.99;45.43
35676;BME280;21790;42.668;23.298;2023-01-25T07:09:19;95745.16;;;8.96;45.20
35676;BME280;21790;42.668;23.298;2023-01-25T07:11:52;95756.88;;;8.80;45.64
35676;BME280;21790;42.668;23.298;2023-01-25T07:14:19;95745.28;;;9.09;45.33
35676;BME280;21790;42.668;23.298;2023-01-25T07:16:44;95754.34;;;8.90;45.50
35676;BME280;21790;42.668;23.298;2023-01-25T07:19:15;95749.38;;;9.01;45.47
35676;BME280;21790;42.668;23.298;2023-01-25T07:21:44;95752.63;;;8.36;46.54
35676;BME280;21790;42.668;23.298;2023-01-25T07:24:13;95751.31;;;8.45;46.57
35676;BME280;21790;42.668;23.298;2023-01-25T07:26:40;95765.88;;;8.65;45.99
35676;BME280;21790;42.668;23.298;2023-01-25T07:29:08;95768.41;;;8.75;45.80
35676;BME280;21790;42.668;23.298;2023-01-25T07:31:35;95763.56;;;8.40;46.15
35676;BME280;21790;42.668;23.298;2023-01-25T07:34:01;95758.59;;;8.55;46.24
35676;BME280;21790;42.668;23.298;2023-01-25T07:36:27;95756.41;;;8.66;46.24
35676;BME280;21790;42.668;23.298;2023-01-25T07:38:53;95760.78;;;8.83;45.84
35676;BME280;21790;42.668;23.298;2023-01-25T07:41:20;95766.44;;;8.96;45.43
35676;BME280;21790;42.668;23.298;2023-01-25T07:43:45;95766.38;;;8.99;45.42
35676;BME280;21790;42.668;23.298;2023-01-25T07:46:12;95774.47;;;9.06;45.11
35676;BME280;21790;42.668;23.298;2023-01-25T07:48:39;95771.16;;;9.15;45.37
35676;BME280;21790;42.668;23.298;2023-01-25T07:51:07;95766.78;;;8.98;45.18
35676;BME280;21790;42.668;23.298;2023-01-25T07:53:50;95767.63;;;8.95;45.24
35676;BME280;21790;42.668;23.298;2023-01-25T07:56:17;95774.63;;;8.79;46.02
35676;BME280;21790;42.668;23.298;2023-01-25T07:58:44;95773.56;;;8.73;45.94
35676;BME280;21790;42.668;23.298;2023-01-25T08:01:14;95757.81;;;8.94;45.69
35676;BME280;21790;42.668;23.298;2023-01-25T08:03:41;95763.53;;;8.63;46.31
35676;BME280;21790;42.668;23.298;2023-01-25T08:06:08;95769.03;;;9.03;45.71
35676;BME280;21790;42.668;23.298;2023-01-25T08:08:37;95747.34;;;9.05;45.58
35676;BME280;21790;42.668;23.298;2023-01-25T08:11:12;95777.03;;;8.97;46.17
35676;BME280;21790;42.668;23.298;2023-01-25T08:13:39;95762.38;;;8.41;47.33
35676;BME280;21790;42.668;23.298;2023-01-25T08:16:05;95772.16;;;8.65;46.81
35676;BME280;21790;42.668;23.298;2023-01-25T08:18:31;95771.28;;;8.49;47.22
35676;BME280;21790;42.668;23.298;2023-01-25T08:20:57;95765.88;;;8.65;47.09
35676;BME280;21790;42.668;23.298;2023-01-25T08:23:24;95766.22;;;8.87;46.04
35676;BME280;21790;42.668;23.298;2023-01-25T08:25:49;95762.50;;;8.77;46.16
35676;BME280;21790;42.668;23.298;2023-01-25T08:28:16;95763.75;;;8.92;46.19
35676;BME280;21790;42.668;23.298;2023-01-25T08:30:42;95758.00;;;9.03;45.99
35676;BME280;21790;42.668;23.298;2023-01-25T08:33:09;95760.31;;;9.24;45.97
35676;BME280;21790;42.668;23.298;2023-01-25T08:35:34;95752.09;;;9.04;45.96
35676;BME280;21790;42.668;23.298;2023-01-25T08:38:03;95757.94;;;9.06;46.10
35676;BME280;21790;42.668;23.298;2023-01-25T08:40:28;95750.34;;;8.94;46.37
35676;BME280;21790;42.668;23.298;2023-01-25T08:42:55;95757.59;;;9.04;46.25
35676;BME280;21790;42.668;23.298;2023-01-25T08:45:21;95754.06;;;9.04;46.21
35676;BME280;21790;42.668;23.298;2023-01-25T08:47:47;95743.03;;;9.04;46.00
35676;BME280;21790;42.668;23.298;2023-01-25T08:50:13;95743.88;;;9.20;45.84
35676;BME280;21790;42.668;23.298;2023-01-25T08:52:39;95751.03;;;9.34;45.63
35676;BME280;21790;42.668;23.298;2023-01-25T08:55:05;95748.00;;;9.29;45.89
35676;BME280;21790;42.668;23.298;2023-01-25T08:57:31;95748.97;;;9.38;45.71
35676;BME280;21790;42.668;23.298;2023-01-25T08:59:58;95751.56;;;9.45;45.68
35676;BME280;21790;42.668;23.298;2023-01-25T09:02:25;95761.25;;;9.53;45.76
35676;BME280;21790;42.668;23.298;2023-01-25T09:04:50;95757.41;;;9.31;45.72
35676;BME280;21790;42.668;23.298;2023-01-25T09:07:16;95754.38;;;9.26;45.74
35676;BME280;21790;42.668;23.298;2023-01-25T09:09:42;95751.41;;;9.36;45.98
35676;BME280;21790;42.668;23.298;2023-01-25T09:12:08;95754.31;;;9.29;46.05
35676;BME280;21790;42.668;23.298;2023-01-25T09:14:34;95750.47;;;9.23;46.04
35676;BME280;21790;42.668;23.298;2023-01-25T09:17:01;95743.50;;;9.18;46.42
35676;BME280;21790;42.668;23.298;2023-01-25T09:19:26;95740.19;;;9.27;46.27
35676;BME280;21790;42.668;23.298;2023-01-25T09:21:53;95741.34;;;8.90;47.64
35676;BME280;21790;42.668;23.298;2023-01-25T09:24:18;95723.78;;;9.00;47.35
35676;BME280;21790;42.668;23.298;2023-01-25T09:26:44;95742.66;;;9.21;46.81
35676;BME280;21790;42.668;23.298;2023-01-25T09:29:11;95733.94;;;9.23;46.63
35676;BME280;21790;42.668;23.298;2023-01-25T09:31:37;95723.72;;;9.04;47.37
35676;BME280;21790;42.668;23.298;2023-01-25T09:34:14;95724.38;;;8.92;47.62
35676;BME280;21790;42.668;23.298;2023-01-25T09:36:40;95727.53;;;9.10;47.08
35676;BME280;21790;42.668;23.298;2023-01-25T09:39:07;95725.94;;;9.29;46.71
35676;BME280;21790;42.668;23.298;2023-01-25T09:46:52;95705.00;;;9.31;46.95
35676;BME280;21790;42.668;23.298;2023-01-25T09:55:43;95694.78;;;9.12;47.75
35676;BME280;21790;42.668;23.298;2023-01-25T09:58:16;95691.84;;;9.03;48.18
35676;BME280;21790;42.668;23.298;2023-01-25T10:00:44;95690.31;;;9.18;47.72
35676;BME280;21790;42.668;23.298;2023-01-25T10:03:33;95684.31;;;9.39;47.07
35676;BME280;21790;42.668;23.298;2023-01-25T10:06:03;95679.81;;;9.13;47.32
35676;BME280;21790;42.668;23.298;2023-01-25T10:11:13;95665.72;;;9.43;47.13
35676;BME280;21790;42.668;23.298;2023-01-25T10:13:43;95660.78;;;9.51;46.72
35676;BME280;21790;42.668;23.298;2023-01-25T10:19:00;95655.97;;;8.87;48.28
35676;BME280;21790;42.668;23.298;2023-01-25T10:21:45;95652.25;;;8.57;48.84
35676;BME280;21790;42.668;23.298;2023-01-25T10:26:39;95649.97;;;9.08;47.50
35676;BME280;21790;42.668;23.298;2023-01-25T10:29:17;95648.59;;;9.00;47.25
35676;BME280;21790;42.668;23.298;2023-01-25T10:34:43;95640.63;;;9.38;46.94
35676;BME280;21790;42.668;23.298;2023-01-25T10:37:12;95642.50;;;9.24;46.79
35676;BME280;21790;42.668;23.298;2023-01-25T10:39:48;95635.09;;;9.38;46.86
35676;BME280;21790;42.668;23.298;2023-01-25T10:42:17;95634.50;;;9.30;46.97
35676;BME280;21790;42.668;23.298;2023-01-25T10:44:43;95633.97;;;9.19;47.23
35676;BME280;21790;42.668;23.298;2023-01-25T10:47:20;95616.56;;;9.54;46.67
35676;BME280;21790;42.668;23.298;2023-01-25T10:49:53;95613.63;;;9.29;46.39
35676;BME280;21790;42.668;23.298;2023-01-25T10:52:25;95618.03;;;9.27;46.49
35676;BME280;21790;42.668;23.298;2023-01-25T10:55:20;95609.75;;;9.27;45.92
35676;BME280;21790;42.668;23.298;2023-01-25T10:57:51;95583.97;;;9.01;46.12
35676;BME280;21790;42.668;23.298;2023-01-25T11:02:55;95602.44;;;9.36;45.25
35676;BME280;21790;42.668;23.298;2023-01-25T11:05:28;95589.47;;;9.49;45.60
35676;BME280;21790;42.668;23.298;2023-01-25T11:07:55;95589.16;;;9.15;46.19
35676;BME280;21790;42.668;23.298;2023-01-25T11:10:36;95592.22;;;9.49;45.25
35676;BME280;21790;42.668;23.298;2023-01-25T11:15:43;95588.53;;;9.40;44.96
35676;BME280;21790;42.668;23.298;2023-01-25T11:21:11;95583.38;;;9.42;44.91
35676;BME280;21790;42.668;23.298;2023-01-25T11:23:39;95577.78;;;9.29;44.93
35676;BME280;21790;42.668;23.298;2023-01-25T11:26:18;95571.69;;;9.66;44.41
35676;BME280;21790;42.668;23.298;2023-01-25T11:28:45;95575.94;;;9.55;44.62
35676;BME280;21790;42.668;23.298;2023-01-25T11:31:15;95552.56;;;9.59;44.48
35676;BME280;21790;42.668;23.298;2023-01-25T11:33:41;95564.13;;;9.71;44.24
35676;BME280;21790;42.668;23.298;2023-01-25T11:49:34;95535.81;;;10.24;43.51
35676;BME280;21790;42.668;23.298;2023-01-25T11:52:23;95532.56;;;10.13;43.20
35676;BME280;21790;42.668;23.298;2023-01-25T11:55:09;95514.50;;;10.37;43.00
35676;BME280;21790;42.668;23.298;2023-01-25T12:05:58;95515.59;;;9.98;43.33
35676;BME280;21790;42.668;23.298;2023-01-25T12:08:31;95520.94;;;9.77;43.58
35676;BME280;21790;42.668;23.298;2023-01-25T12:11:35;95514.97;;;10.07;43.33
35676;BME280;21790;42.668;23.298;2023-01-25T12:14:36;95513.50;;;10.19;42.89
35676;BME280;21790;42.668;23.298;2023-01-25T12:17:44;95507.25;;;10.02;42.99
35676;BME280;21790;42.668;23.298;2023-01-25T12:28:15;95493.84;;;10.00;43.43
35676;BME280;21790;42.668;23.298;2023-01-25T12:30:52;95496.09;;;9.77;43.83
35676;BME280;21790;42.668;23.298;2023-01-25T12:36:17;95490.56;;;9.77;43.49
35676;BME280;21790;42.668;23.298;2023-01-25T12:38:57;95494.91;;;9.78;43.38
35676;BME280;21790;42.668;23.298;2023-01-25T12:44:19;95500.53;;;9.29;44.34
35676;BME280;21790;42.668;23.298;2023-01-25T12:46:59;95486.44;;;9.56;44.01
35676;BME280;21790;42.668;23.298;2023-01-25T12:49:37;95479.59;;;9.60;43.57
35676;BME280;21790;42.668;23.298;2023-01-25T12:52:32;95484.63;;;9.49;44.10
35676;BME280;21790;42.668;23.298;2023-01-25T12:55:05;95475.16;;;9.50;43.63
35676;BME280;21790;42.668;23.298;2023-01-25T12:57:43;95482.00;;;9.30;44.25
35676;BME280;21790;42.668;23.298;2023-01-25T13:03:11;95480.53;;;9.41;44.44
35676;BME280;21790;42.668;23.298;2023-01-25T13:11:09;95457.59;;;8.99;45.38
35676;BME280;21790;42.668;23.298;2023-01-25T13:13:37;95468.25;;;8.32;46.49
35676;BME280;21790;42.668;23.298;2023-01-25T13:18:54;95462.16;;;8.73;45.80
35676;BME280;21790;42.668;23.298;2023-01-25T13:29:07;95462.09;;;8.25;46.92
35676;BME280;21790;42.668;23.298;2023-01-25T13:31:49;95458.28;;;8.55;45.94
35676;BME280;21790;42.668;23.298;2023-01-25T13:37:17;95456.03;;;9.14;45.06
35676;BME280;21790;42.668;23.298;2023-01-25T13:39:55;95458.16;;;9.23;45.21
35676;BME280;21790;42.668;23.298;2023-01-25T13:42:21;95460.19;;;8.74;45.64
35676;BME280;21790;42.668;23.298;2023-01-25T13:44:49;95468.00;;;9.08;45.26
35676;BME280;21790;42.668;23.298;2023-01-25T13:47:20;95471.41;;;9.28;44.78
35676;BME280;21790;42.668;23.298;2023-01-25T13:50:01;95468.84;;;9.50;44.43
35676;BME280;21790;42.668;23.298;2023-01-25T13:52:32;95474.94;;;9.29;44.57
35676;BME280;21790;42.668;23.298;2023-01-25T13:54:58;95463.13;;;9.28;44.50
35676;BME280;21790;42.668;23.298;2023-01-25T13:57:28;95472.38;;;9.50;44.33
35676;BME280;21790;42.668;23.298;2023-01-25T14:00:06;95474.28;;;9.53;44.13
35676;BME280;21790;42.668;23.298;2023-01-25T14:02:35;95472.97;;;9.29;44.54
35676;BME280;21790;42.668;23.298;2023-01-25T14:05:03;95456.03;;;9.43;44.09
35676;BME280;21790;42.668;23.298;2023-01-25T14:07:32;95463.03;;;8.87;45.16
35676;BME280;21790;42.668;23.298;2023-01-25T14:10:07;95465.38;;;9.33;44.62
35676;BME280;21790;42.668;23.298;2023-01-25T14:12:38;95470.34;;;9.67;44.05
35676;BME280;21790;42.668;23.298;2023-01-25T14:15:30;95464.66;;;9.45;44.53
35676;BME280;21790;42.668;23.298;2023-01-25T14:18:25;95463.81;;;9.61;44.24
35676;BME280;21790;42.668;23.298;2023-01-25T14:20:51;95465.88;;;9.28;44.10
35676;BME280;21790;42.668;23.298;2023-01-25T14:23:28;95466.38;;;9.39;44.43
35676;BME280;21790;42.668;23.298;2023-01-25T14:25:56;95459.13;;;9.45;44.04
35676;BME280;21790;42.668;23.298;2023-01-25T14:28:24;95456.50;;;9.26;44.34
35676;BME280;21790;42.668;23.298;2023-01-25T14:30:56;95451.06;;;8.93;45.49
35676;BME280;21790;42.668;23.298;2023-01-25T14:36:01;95446.84;;;8.89;45.06
35676;BME280;21790;42.668;23.298;2023-01-25T14:38:41;95434.78;;;8.82;45.68
35676;BME280;21790;42.668;23.298;2023-01-25T14:41:37;95446.38;;;9.06;44.96
35676;BME280;21790;42.668;23.298;2023-01-25T14:44:12;95442.38;;;9.23;45.00
35676;BME280;21790;42.668;23.298;2023-01-25T14:46:39;95444.63;;;8.84;45.36
35676;BME280;21790;42.668;23.298;2023-01-25T14:51:44;95433.13;;;8.85;45.84
35676;BME280;21790;42.668;23.298;2023-01-25T14:54:23;95435.56;;;9.28;44.59
35676;BME280;21790;42.668;23.298;2023-01-25T14:56:56;95441.38;;;9.01;45.21
35676;BME280;21790;42.668;23.298;2023-01-25T15:03:20;95455.38;;;9.23;44.69
35676;BME280;21790;42.668;23.298;2023-01-25T15:05:29;95453.06;;;8.60;46.35
35676;BME280;21790;42.668;23.298;2023-01-25T15:08:11;95463.81;;;8.71;46.05
35676;BME280;21790;42.668;23.298;2023-01-25T15:10:52;95463.19;;;8.47;46.48
35676;BME280;21790;42.668;23.298;2023-01-25T15:13:26;95469.59;;;8.76;45.88
35676;BME280;21790;42.668;23.298;2023-01-25T15:16:00;95476.13;;;8.82;45.83